createdAt,value
2022-12-19T00:00:43.456Z,101071.19
2022-12-19T00:03:11.496Z,101069.47
2022-12-19T00:05:40.719Z,101069.44
2022-12-19T00:08:17.813Z,101060.13
2022-12-19T00:10:56.350Z,101055.88
2022-12-19T00:13:25.436Z,101049.56
2022-12-19T00:15:53.502Z,101044.56
2022-12-19T00:18:21.419Z,101037.03
2022-12-19T00:20:58.388Z,101037.56
2022-12-19T00:23:30.459Z,101025.22
2022-12-19T00:26:10.083Z,101029.22
2022-12-19T00:28:38.003Z,101026.88
2022-12-19T00:31:06.371Z,101021.44
2022-12-19T00:33:34.915Z,101018.88
2022-12-19T00:36:10.513Z,101023.66
2022-12-19T00:38:39.977Z,101029.78
2022-12-19T00:41:12.552Z,101018.75
2022-12-19T00:43:40.895Z,101002.88
2022-12-19T00:46:12.539Z,100989.84
2022-12-19T00:48:42.185Z,101001.75
2022-12-19T00:51:13.563Z,100990.09
2022-12-19T00:53:44.639Z,101006.78
2022-12-19T00:56:17.164Z,101006.88
2022-12-19T00:58:47.392Z,101008.28
2022-12-19T01:01:19.699Z,100994.06
2022-12-19T01:04:19.159Z,100990.31
2022-12-19T01:06:36.433Z,100989.16
2022-12-19T01:09:07.983Z,100984.06
2022-12-19T01:11:55.766Z,100984.66
2022-12-19T01:14:23.682Z,100968.84
2022-12-19T01:16:52.243Z,100968.66
2022-12-19T01:19:20.705Z,100968.31
2022-12-19T01:21:48.751Z,100974.63
2022-12-19T01:24:18.919Z,100975.84
2022-12-19T01:26:51.929Z,100977.31
2022-12-19T01:29:19.704Z,100970.13
2022-12-19T01:31:48.877Z,100963.47
2022-12-19T01:34:16.727Z,100961.50
2022-12-19T01:36:44.621Z,100957.88
2022-12-19T01:39:12.393Z,100965.25
2022-12-19T01:41:40.250Z,100961.50
2022-12-19T01:44:10.121Z,100958.34
2022-12-19T01:46:43.692Z,100955.22
2022-12-19T01:49:25.029Z,100945.78
2022-12-19T01:51:56.826Z,100934.19
2022-12-19T01:54:35.826Z,100928.00
2022-12-19T01:57:11.215Z,100921.03
2022-12-19T01:59:46.037Z,100919.81
2022-12-19T02:02:23.086Z,100915.09
2022-12-19T02:04:51.050Z,100917.66
2022-12-19T02:07:24.018Z,100913.34
2022-12-19T02:09:57.777Z,100904.78
2022-12-19T02:12:39.977Z,100903.13
2022-12-19T02:15:14.989Z,100896.44
2022-12-19T02:18:08.349Z,100887.28
2022-12-19T02:21:14.847Z,100890.13
2022-12-19T02:24:14.308Z,100898.59
2022-12-19T02:27:25.511Z,100897.59
2022-12-19T02:30:12.725Z,100883.25
2022-12-19T02:32:59.279Z,100865.03
2022-12-19T02:35:35.292Z,100865.34
2022-12-19T02:38:16.005Z,100874.00
2022-12-19T02:40:55.640Z,100868.47
2022-12-19T02:43:31.038Z,100864.34
2022-12-19T02:46:03.668Z,100850.38
2022-12-19T02:48:35.297Z,100841.50
2022-12-19T02:51:05.691Z,100842.13
2022-12-19T02:53:36.365Z,100842.31
2022-12-19T02:56:38.134Z,100838.44
2022-12-19T02:59:24.925Z,100839.50
2022-12-19T03:02:04.140Z,100848.78
2022-12-19T03:04:48.010Z,100840.28
2022-12-19T03:07:29.250Z,100839.78
2022-12-19T03:10:12.793Z,100838.91
2022-12-19T03:12:53.516Z,100816.41
2022-12-19T03:15:23.774Z,100826.06
2022-12-19T03:17:56.903Z,100816.59
2022-12-19T03:20:40.269Z,100813.84
2022-12-19T03:23:08.367Z,100812.47
2022-12-19T03:25:36.245Z,100810.88
2022-12-19T03:28:11.874Z,100811.44
2022-12-19T03:30:44.611Z,100811.06
2022-12-19T03:33:17.300Z,100803.28
2022-12-19T03:35:48.796Z,100808.06
2022-12-19T03:38:20.693Z,100802.94
2022-12-19T03:40:49.985Z,100805.44
2022-12-19T03:43:22.044Z,100796.00
2022-12-19T03:46:02.040Z,100785.28
2022-12-19T03:48:40.969Z,100776.63
2022-12-19T03:51:26.683Z,100783.81
2022-12-19T03:54:01.781Z,100776.91
2022-12-19T03:56:40.049Z,100765.00
2022-12-19T03:59:17.055Z,100760.97
2022-12-19T04:01:46.837Z,100763.94
2022-12-19T04:04:16.348Z,100765.88
2022-12-19T04:06:47.028Z,100761.13
2022-12-19T04:09:22.554Z,100759.69
2022-12-19T04:11:58.752Z,100748.69
2022-12-19T04:14:31.915Z,100748.69
2022-12-19T04:17:15.786Z,100751.75
2022-12-19T04:19:51.119Z,100745.94
2022-12-19T04:22:29.256Z,100739.13
2022-12-19T04:25:00.607Z,100735.16
2022-12-19T04:27:35.679Z,100735.31
2022-12-19T04:30:09.688Z,100727.75
2022-12-19T04:32:40.471Z,100725.44
2022-12-19T04:35:09.495Z,100724.03
2022-12-19T04:37:38.867Z,100732.88
2022-12-19T04:40:08.920Z,100722.34
2022-12-19T04:42:37.072Z,100726.22
2022-12-19T04:45:07.073Z,100722.88
2022-12-19T04:47:35.512Z,100724.16
2022-12-19T04:50:03.697Z,100719.94
2022-12-19T04:52:31.520Z,100719.59
2022-12-19T04:55:00.622Z,100714.13
2022-12-19T04:57:30.026Z,100721.00
2022-12-19T04:59:58.286Z,100722.91
2022-12-19T05:02:26.941Z,100710.75
2022-12-19T05:04:55.173Z,100705.63
2022-12-19T05:07:23.074Z,100707.19
2022-12-19T05:09:50.863Z,100701.53
2022-12-19T05:12:20.044Z,100707.38
2022-12-19T05:14:48.304Z,100701.38
2022-12-19T05:17:16.283Z,100695.69
2022-12-19T05:19:44.108Z,100693.63
2022-12-19T05:22:11.847Z,100683.16
2022-12-19T05:24:39.541Z,100683.47
2022-12-19T05:27:07.579Z,100687.56
2022-12-19T05:29:36.617Z,100675.63
2022-12-19T05:32:04.546Z,100679.38
2022-12-19T05:34:32.428Z,100679.59
2022-12-19T05:37:02.920Z,100681.66
2022-12-19T05:39:30.741Z,100682.66
2022-12-19T05:41:58.542Z,100681.97
2022-12-19T05:44:27.589Z,100683.00
2022-12-19T05:46:56.927Z,100678.13
2022-12-19T05:49:24.773Z,100678.03
2022-12-19T05:51:52.905Z,100683.16
2022-12-19T05:54:20.888Z,100674.47
2022-12-19T05:56:48.620Z,100679.06
2022-12-19T05:59:16.498Z,100677.31
2022-12-19T06:01:44.409Z,100689.28
2022-12-19T06:04:13.680Z,100689.09
2022-12-19T06:06:41.455Z,100685.88
2022-12-19T06:09:09.212Z,100688.28
2022-12-19T06:11:36.976Z,100692.97
2022-12-19T06:14:08.057Z,100691.59
2022-12-19T06:16:35.945Z,100689.19
2022-12-19T06:19:03.969Z,100687.44
2022-12-19T06:21:33.145Z,100681.41
2022-12-19T06:24:01.151Z,100673.47
2022-12-19T06:26:29.424Z,100680.03
2022-12-19T06:28:57.298Z,100670.63
2022-12-19T06:31:25.816Z,100670.47
2022-12-19T06:33:55.411Z,100674.34
2022-12-19T06:36:26.102Z,100677.34
2022-12-19T06:39:00.159Z,100670.47
2022-12-19T06:41:46.943Z,100664.03
2022-12-19T06:44:17.249Z,100674.97
2022-12-19T06:46:45.145Z,100675.91
2022-12-19T06:49:13.132Z,100669.03
2022-12-19T06:51:41.320Z,100665.22
2022-12-19T06:54:11.465Z,100664.66
2022-12-19T06:56:41.969Z,100662.78
2022-12-19T06:59:14.392Z,100664.31
2022-12-19T07:01:59.721Z,100658.56
2022-12-19T07:04:32.521Z,100656.94
2022-12-19T07:07:01.317Z,100662.41
2022-12-19T07:09:31.719Z,100655.47
2022-12-19T07:12:00.901Z,100663.31
2022-12-19T07:14:28.628Z,100663.28
2022-12-19T07:17:00.863Z,100651.59
2022-12-19T07:19:31.367Z,100664.91
2022-12-19T07:22:02.146Z,100658.44
2022-12-19T07:24:32.270Z,100670.47
2022-12-19T07:27:00.193Z,100670.47
2022-12-19T07:29:28.080Z,100663.44
2022-12-19T07:31:55.978Z,100660.13
2022-12-19T07:34:23.964Z,100650.34
2022-12-19T07:36:51.866Z,100669.72
2022-12-19T07:39:19.687Z,100668.63
2022-12-19T07:41:48.777Z,100673.13
2022-12-19T07:44:28.124Z,100667.97
2022-12-19T07:46:56.236Z,100666.38
2022-12-19T07:49:24.358Z,100666.66
2022-12-19T07:51:52.132Z,100664.22
2022-12-19T07:54:19.961Z,100675.63
2022-12-19T07:56:49.724Z,100673.03
2022-12-19T07:59:18.125Z,100669.00
2022-12-19T08:01:46.743Z,100675.75
2022-12-19T08:04:14.893Z,100676.16
2022-12-19T08:06:42.687Z,100677.13
2022-12-19T08:09:10.447Z,100678.97
2022-12-19T08:11:38.910Z,100668.47
2022-12-19T08:14:08.034Z,100683.91
2022-12-19T08:17:10.921Z,100669.41
2022-12-19T08:19:27.813Z,100679.94
2022-12-19T08:21:55.958Z,100680.13
2022-12-19T08:24:24.684Z,100692.06
2022-12-19T08:26:52.748Z,100688.06
2022-12-19T08:29:22.871Z,100689.16
2022-12-19T08:31:51.180Z,100685.72
2022-12-19T08:34:19.137Z,100685.44
2022-12-19T08:36:47.073Z,100685.56
2022-12-19T08:39:14.952Z,100689.06
2022-12-19T08:41:42.666Z,100678.41
2022-12-19T08:44:13.495Z,100675.34
2022-12-19T08:46:49.440Z,100672.72
2022-12-19T08:49:18.782Z,100672.13
2022-12-19T08:51:47.118Z,100672.38
2022-12-19T08:54:15.208Z,100679.59
2022-12-19T08:56:46.299Z,100681.25
2022-12-19T08:59:18.716Z,100684.53
2022-12-19T09:01:56.333Z,100671.50
2022-12-19T09:05:13.566Z,100675.78
2022-12-19T09:07:15.286Z,100670.91
2022-12-19T09:09:44.083Z,100680.56
2022-12-19T09:12:13.603Z,100673.78
2022-12-19T09:14:41.555Z,100675.44
2022-12-19T09:17:10.855Z,100679.63
2022-12-19T09:19:38.637Z,100675.72
2022-12-19T09:22:07.738Z,100674.94
2022-12-19T09:24:35.561Z,100677.31
2022-12-19T09:27:03.471Z,100680.75
2022-12-19T09:29:35.362Z,100678.38
2022-12-19T09:32:03.662Z,100676.81
2022-12-19T09:34:38.317Z,100680.69
2022-12-19T09:37:08.379Z,100677.44
2022-12-19T09:39:36.604Z,100673.16
2022-12-19T09:42:27.666Z,100675.81
2022-12-19T09:45:19.505Z,100680.47
2022-12-19T09:48:01.859Z,100683.25
2022-12-19T09:50:47.897Z,100669.53
2022-12-19T09:53:25.628Z,100676.44
2022-12-19T09:55:54.812Z,100674.94
2022-12-19T09:58:41.006Z,100668.84
2022-12-19T10:01:20.358Z,100684.31
2022-12-19T10:04:00.991Z,100675.19
2022-12-19T10:07:15.901Z,100680.44
2022-12-19T10:11:18.591Z,100676.47
2022-12-19T10:12:53.004Z,100683.09
2022-12-19T10:15:35.774Z,100687.75
2022-12-19T10:18:31.805Z,100687.50
2022-12-19T10:21:07.608Z,100680.56
2022-12-19T10:23:59.763Z,100682.59
2022-12-19T10:26:39.915Z,100665.59
2022-12-19T10:29:34.090Z,100677.75
2022-12-19T10:32:13.890Z,100674.72
2022-12-19T10:34:44.758Z,100675.69
2022-12-19T10:37:25.351Z,100682.44
2022-12-19T10:40:20.018Z,100673.66
2022-12-19T10:43:09.376Z,100675.22
2022-12-19T10:45:47.052Z,100677.50
2022-12-19T10:48:19.718Z,100670.94
2022-12-19T10:50:50.734Z,100671.72
2022-12-19T10:53:28.779Z,100663.16
2022-12-19T10:56:13.018Z,100671.38
2022-12-19T10:58:44.387Z,100662.00
2022-12-19T11:01:17.630Z,100653.47
2022-12-19T11:03:54.564Z,100662.91
2022-12-19T11:06:57.083Z,100670.56
2022-12-19T11:09:29.255Z,100657.84
2022-12-19T11:15:38.004Z,100657.84
2022-12-19T11:19:42.376Z,100647.84
2022-12-19T11:23:31.368Z,100648.06
2022-12-19T11:30:05.066Z,100648.91
2022-12-19T11:30:41.365Z,100646.81
2022-12-19T11:30:47.997Z,100644.03
2022-12-19T11:32:41.551Z,100652.09
2022-12-19T11:35:19.921Z,100648.72
2022-12-19T11:37:55.864Z,100659.84
2022-12-19T11:40:34.076Z,100662.44
2022-12-19T11:46:16.231Z,100666.84
2022-12-19T11:48:53.712Z,100663.47
2022-12-19T11:51:32.319Z,100659.25
2022-12-19T11:54:13.904Z,100644.44
2022-12-19T11:56:41.921Z,100640.69
2022-12-19T11:59:18.308Z,100633.28
2022-12-19T12:02:09.758Z,100630.03
2022-12-19T12:05:08.624Z,100625.06
2022-12-19T12:08:37.099Z,100618.50
2022-12-19T12:15:23.545Z,100628.50
2022-12-19T12:20:55.070Z,100620.53
2022-12-19T12:29:35.381Z,100618.28
2022-12-19T12:31:13.627Z,100614.75
2022-12-19T12:31:41.877Z,100610.91
2022-12-19T12:32:00.733Z,100618.56
2022-12-19T12:32:03.001Z,100622.91
2022-12-19T12:35:50.036Z,100626.81
2022-12-19T12:38:43.277Z,100635.19
2022-12-19T12:41:46.269Z,100630.88
2022-12-19T12:44:15.524Z,100635.75
2022-12-19T12:46:49.293Z,100635.84
2022-12-19T12:49:35.966Z,100623.78
2022-12-19T12:52:12.893Z,100628.38
2022-12-19T12:54:45.354Z,100611.28
2022-12-19T12:57:33.890Z,100625.13
2022-12-19T13:00:24.695Z,100616.53
2022-12-19T13:03:02.560Z,100617.94
2022-12-19T13:05:53.385Z,100623.13
2022-12-19T13:08:34.314Z,100602.22
2022-12-19T13:11:06.780Z,100596.34
2022-12-19T13:13:53.697Z,100586.91
2022-12-19T13:16:54.276Z,100583.47
2022-12-19T13:19:28.884Z,100578.94
2022-12-19T13:22:23.079Z,100583.56
2022-12-19T13:24:54.746Z,100581.06
2022-12-19T13:27:39.220Z,100575.38
2022-12-19T13:30:20.169Z,100574.69
2022-12-19T13:33:10.095Z,100582.41
2022-12-19T13:37:05.286Z,100577.16
2022-12-19T13:39:58.052Z,100577.16
2022-12-19T13:41:58.310Z,100564.06
2022-12-19T13:44:27.635Z,100562.84
2022-12-19T13:46:56.569Z,100556.13
2022-12-19T13:49:34.768Z,100557.78
2022-12-19T13:52:06.888Z,100564.41
2022-12-19T13:54:46.734Z,100563.56
2022-12-19T13:57:24.802Z,100565.28
2022-12-19T14:00:00.031Z,100556.34
2022-12-19T14:02:44.080Z,100558.84
2022-12-19T14:05:34.065Z,100546.84
2022-12-19T14:08:21.473Z,100555.44
2022-12-19T14:11:29.020Z,100551.72
2022-12-19T14:14:16.535Z,100550.06
2022-12-19T14:16:48.504Z,100542.94
2022-12-19T14:19:21.794Z,100542.84
2022-12-19T14:22:11.804Z,100533.50
2022-12-19T14:24:53.078Z,100529.00
2022-12-19T14:28:24.935Z,100529.09
2022-12-19T14:30:30.060Z,100528.31
2022-12-19T14:33:45.357Z,100524.63
2022-12-19T14:36:08.442Z,100523.81
2022-12-19T14:39:24.217Z,100530.06
2022-12-19T14:42:03.000Z,100519.75
2022-12-19T14:52:26.128Z,100520.41
2022-12-19T14:54:05.507Z,100516.72
2022-12-19T14:54:06.895Z,100521.97
2022-12-19T14:55:08.281Z,100515.06
2022-12-19T14:57:00.310Z,100508.91
2022-12-19T14:59:35.430Z,100511.56
2022-12-19T15:02:28.167Z,100511.34
2022-12-19T15:05:07.607Z,100505.97
2022-12-19T15:07:40.991Z,100519.75
2022-12-19T15:11:10.902Z,100522.81
2022-12-19T15:14:58.566Z,100514.56
2022-12-19T15:16:26.747Z,100516.13
2022-12-19T15:18:58.545Z,100507.34
2022-12-19T15:21:29.832Z,100496.63
2022-12-19T15:23:58.071Z,100492.22
2022-12-19T15:26:33.209Z,100489.38
2022-12-19T15:29:02.893Z,100483.28
2022-12-19T15:31:36.048Z,100482.50
2022-12-19T15:34:35.025Z,100478.38
2022-12-19T15:37:05.047Z,100477.59
2022-12-19T15:39:32.880Z,100471.72
2022-12-19T15:42:02.905Z,100479.25
2022-12-19T15:44:37.828Z,100476.31
2022-12-19T15:47:15.660Z,100467.84
2022-12-19T15:49:43.617Z,100465.22
2022-12-19T15:52:17.314Z,100460.81
2022-12-19T15:54:50.075Z,100463.81
2022-12-19T15:57:32.494Z,100455.09
2022-12-19T16:00:09.015Z,100452.09
2022-12-19T16:03:21.052Z,100456.66
2022-12-19T16:05:29.505Z,100448.75
2022-12-19T16:07:58.822Z,100440.91
2022-12-19T16:10:29.472Z,100451.47
2022-12-19T16:12:58.845Z,100460.34
2022-12-19T16:15:33.696Z,100451.94
2022-12-19T16:18:03.789Z,100467.69
2022-12-19T16:20:39.330Z,100465.91
2022-12-19T16:23:08.204Z,100465.28
2022-12-19T16:25:41.212Z,100470.38
2022-12-19T16:28:18.349Z,100483.72
2022-12-19T16:30:47.396Z,100485.16
2022-12-19T16:33:22.144Z,100495.63
2022-12-19T16:36:07.650Z,100498.19
2022-12-19T16:38:36.548Z,100506.88
2022-12-19T16:41:04.618Z,100515.59
2022-12-19T16:43:38.502Z,100519.13
2022-12-19T16:46:08.595Z,100520.22
2022-12-19T16:48:36.455Z,100527.34
2022-12-19T16:51:04.828Z,100531.53
2022-12-19T16:53:33.171Z,100530.66
2022-12-19T16:56:02.437Z,100537.59
2022-12-19T16:58:30.311Z,100537.84
2022-12-19T17:00:59.602Z,100529.56
2022-12-19T17:03:37.123Z,100518.84
2022-12-19T17:06:05.039Z,100526.63
2022-12-19T17:08:33.005Z,100532.81
2022-12-19T17:11:00.794Z,100520.69
2022-12-19T17:13:28.897Z,100511.19
2022-12-19T17:16:55.354Z,100491.69
2022-12-19T17:23:15.722Z,100496.53
2022-12-19T17:25:44.714Z,100497.59
2022-12-19T17:28:13.003Z,100500.72
2022-12-19T17:30:43.958Z,100498.97
2022-12-19T17:37:04.415Z,100503.72
2022-12-19T17:39:34.523Z,100506.38
2022-12-19T17:42:16.402Z,100511.28
2022-12-19T17:44:44.280Z,100510.75
2022-12-19T17:47:14.906Z,100515.25
2022-12-19T17:49:43.431Z,100523.94
2022-12-19T17:52:16.329Z,100533.34
2022-12-19T17:54:44.367Z,100522.13
2022-12-19T17:57:14.359Z,100528.09
2022-12-19T17:59:42.616Z,100521.97
2022-12-19T18:02:21.241Z,100516.88
2022-12-19T18:04:50.679Z,100522.31
2022-12-19T18:07:19.831Z,100519.81
2022-12-19T18:09:47.769Z,100515.25
2022-12-19T18:12:15.720Z,100509.28
2022-12-19T18:14:43.688Z,100507.34
2022-12-19T18:17:13.670Z,100505.72
2022-12-19T18:19:41.741Z,100505.78
2022-12-19T18:22:12.664Z,100501.28
2022-12-19T18:24:45.518Z,100516.28
2022-12-19T18:27:14.473Z,100512.69
2022-12-19T18:29:42.884Z,100516.81
2022-12-19T18:32:19.062Z,100515.25
2022-12-19T18:34:47.129Z,100517.28
2022-12-19T18:37:15.833Z,100525.22
2022-12-19T18:39:44.877Z,100516.03
2022-12-19T18:42:20.647Z,100510.53
2022-12-19T18:44:48.605Z,100510.94
2022-12-19T18:47:22.120Z,100504.75
2022-12-19T18:49:51.854Z,100509.72
2022-12-19T18:52:19.649Z,100511.72
2022-12-19T18:54:48.917Z,100501.31
2022-12-19T18:57:16.660Z,100501.53
2022-12-19T18:59:44.424Z,100504.19
2022-12-19T19:02:26.244Z,100506.03
2022-12-19T19:04:55.691Z,100495.72
2022-12-19T19:07:23.463Z,100506.09
2022-12-19T19:09:52.602Z,100492.50
2022-12-19T19:12:36.411Z,100496.91
2022-12-19T19:15:05.534Z,100497.91
2022-12-19T19:17:33.474Z,100497.06
2022-12-19T19:20:02.625Z,100503.13
2022-12-19T19:22:30.744Z,100509.06
2022-12-19T19:24:59.864Z,100518.41
2022-12-19T19:27:27.872Z,100517.44
2022-12-19T19:29:55.626Z,100518.22
2022-12-19T19:32:25.322Z,100516.28
2022-12-19T19:34:55.503Z,100521.09
2022-12-19T19:37:23.644Z,100529.84
2022-12-19T19:39:51.457Z,100525.63
2022-12-19T19:42:20.499Z,100516.81
2022-12-19T19:44:48.263Z,100519.72
2022-12-19T19:47:16.082Z,100519.09
2022-12-19T19:49:44.043Z,100512.22
2022-12-19T19:52:11.820Z,100520.44
2022-12-19T19:54:39.674Z,100519.72
2022-12-19T19:57:08.271Z,100514.63
2022-12-19T19:59:38.013Z,100529.69
2022-12-19T20:02:05.925Z,100530.63
2022-12-19T20:04:34.445Z,100526.53
2022-12-19T20:07:02.906Z,100530.06
2022-12-19T20:09:31.302Z,100531.88
2022-12-19T20:11:59.687Z,100530.88
2022-12-19T20:14:27.774Z,100521.50
2022-12-19T20:16:56.895Z,100540.50
2022-12-19T20:19:25.041Z,100532.44
2022-12-19T20:21:53.064Z,100537.63
2022-12-19T20:24:20.913Z,100543.50
2022-12-19T20:26:48.649Z,100536.47
2022-12-19T20:29:16.592Z,100523.50
2022-12-19T20:31:44.690Z,100532.78
2022-12-19T20:34:13.764Z,100541.31
2022-12-19T20:36:41.762Z,100533.75
2022-12-19T20:39:09.874Z,100528.69
2022-12-19T20:41:38.030Z,100534.22
2022-12-19T20:44:05.879Z,100526.66
2022-12-19T20:46:33.763Z,100534.44
2022-12-19T20:49:01.632Z,100537.09
2022-12-19T20:51:30.867Z,100540.50
2022-12-19T20:53:58.713Z,100538.78
2022-12-19T20:56:26.650Z,100543.09
2022-12-19T20:58:54.803Z,100535.13
2022-12-19T21:01:25.380Z,100537.06
2022-12-19T21:03:53.705Z,100536.97
2022-12-19T21:06:26.071Z,100538.06
2022-12-19T21:08:56.975Z,100528.63
2022-12-19T21:11:26.437Z,100526.78
2022-12-19T21:13:54.522Z,100521.00
2022-12-19T21:16:23.560Z,100527.19
2022-12-19T21:18:52.029Z,100534.28
2022-12-19T21:21:23.331Z,100532.47
2022-12-19T21:23:51.933Z,100533.53
2022-12-19T21:26:23.472Z,100525.75
2022-12-19T21:28:52.544Z,100530.00
2022-12-19T21:31:24.978Z,100539.72
2022-12-19T21:33:55.386Z,100536.19
2022-12-19T21:36:25.701Z,100519.00
2022-12-19T21:38:57.089Z,100517.22
2022-12-19T21:41:26.303Z,100518.91
2022-12-19T21:43:56.383Z,100533.53
2022-12-19T21:46:28.051Z,100527.66
2022-12-19T21:48:57.717Z,100525.06
2022-12-19T21:51:29.430Z,100526.91
2022-12-19T21:54:00.833Z,100520.16
2022-12-19T21:56:34.089Z,100520.19
2022-12-19T21:59:05.051Z,100515.09
2022-12-19T22:01:34.128Z,100528.13
2022-12-19T22:04:06.577Z,100524.59
2022-12-19T22:06:37.853Z,100531.50
2022-12-19T22:09:11.951Z,100525.25
2022-12-19T22:11:42.096Z,100520.78
2022-12-19T22:14:12.698Z,100519.19
2022-12-19T22:16:40.672Z,100521.56
2022-12-19T22:19:10.805Z,100524.25
2022-12-19T22:21:38.967Z,100532.75
2022-12-19T22:24:10.633Z,100530.94
2022-12-19T22:26:38.836Z,100523.69
2022-12-19T22:29:11.505Z,100521.94
2022-12-19T22:31:39.959Z,100530.72
2022-12-19T22:34:12.192Z,100527.84
2022-12-19T22:36:42.221Z,100524.16
2022-12-19T22:39:14.003Z,100533.72
2022-12-19T22:41:42.759Z,100533.72
2022-12-19T22:44:18.456Z,100521.38
2022-12-19T22:46:49.479Z,100499.06
2022-12-19T22:49:17.807Z,100507.63
2022-12-19T22:51:45.993Z,100501.44
2022-12-19T22:54:14.078Z,100504.03
2022-12-19T22:56:42.381Z,100497.81
2022-12-19T22:59:13.232Z,100516.09
2022-12-19T23:01:43.586Z,100505.91
2022-12-19T23:04:15.002Z,100504.03
2022-12-19T23:06:44.187Z,100499.56
2022-12-19T23:09:17.963Z,100500.47
2022-12-19T23:11:48.671Z,100495.03
2022-12-19T23:14:20.405Z,100491.78
2022-12-19T23:16:49.150Z,100481.25
2022-12-19T23:19:18.373Z,100495.09
2022-12-19T23:21:46.533Z,100493.53
2022-12-19T23:24:14.992Z,100502.34
2022-12-19T23:26:42.894Z,100493.78
2022-12-19T23:29:13.768Z,100502.72
2022-12-19T23:31:46.643Z,100490.66
2022-12-19T23:34:15.573Z,100497.63
2022-12-19T23:37:10.217Z,100478.78
2022-12-19T23:39:31.063Z,100472.72
2022-12-19T23:41:58.784Z,100475.16
2022-12-19T23:44:27.409Z,100464.00
2022-12-19T23:47:03.021Z,100473.59
2022-12-19T23:49:32.723Z,100464.38
2022-12-19T23:52:00.672Z,100461.66
2022-12-19T23:54:28.563Z,100463.41
2022-12-19T23:56:56.894Z,100470.41
2022-12-19T23:59:24.763Z,100468.81
